createdAt,value
2018-06-03T00:01:02.149Z,34.53
2018-06-03T00:03:32.576Z,33.97
2018-06-03T00:06:01.078Z,33.57
2018-06-03T00:08:29.903Z,33.80
2018-06-03T00:11:02.074Z,39.80
2018-06-03T00:13:30.518Z,37.47
2018-06-03T00:15:58.977Z,34.90
2018-06-03T00:18:27.462Z,39.33
2018-06-03T00:21:13.034Z,36.83
2018-06-03T00:23:41.559Z,36.63
2018-06-03T00:26:15.737Z,36.53
2018-06-03T00:28:56.807Z,36.20
2018-06-03T00:31:30.208Z,34.73
2018-06-03T00:33:58.656Z,39.50
2018-06-03T00:36:38.269Z,41.73
2018-06-03T00:42:02.677Z,36.23
2018-06-03T00:44:32.126Z,39.33
2018-06-03T00:47:00.627Z,35.83
2018-06-03T00:49:29.070Z,34.07
2018-06-03T00:51:57.554Z,40.23
2018-06-03T00:54:25.981Z,34.97
2018-06-03T00:57:18.179Z,36.37
2018-06-03T00:59:48.524Z,34.70
2018-06-03T01:02:29.850Z,36.57
2018-06-03T01:05:21.649Z,34.67
2018-06-03T01:07:50.215Z,28.33
2018-06-03T01:10:24.985Z,36.10
2018-06-03T01:13:00.192Z,34.97
2018-06-03T01:15:31.962Z,33.30
2018-06-03T01:18:02.472Z,29.53
2018-06-03T01:20:31.892Z,34.57
2018-06-03T01:23:02.584Z,37.97
2018-06-03T01:25:31.962Z,30.67
2018-06-03T01:28:01.638Z,36.43
2018-06-03T01:30:31.324Z,28.97
2018-06-03T01:33:02.690Z,34.97
2018-06-03T01:35:32.005Z,37.10
2018-06-03T01:38:04.117Z,35.23
2018-06-03T01:40:32.480Z,36.23
2018-06-03T01:43:03.706Z,34.80
2018-06-03T01:45:32.174Z,36.60
2018-06-03T01:48:02.132Z,32.97
2018-06-03T01:50:31.531Z,35.47
2018-06-03T01:53:01.400Z,34.73
2018-06-03T01:55:31.681Z,32.97
2018-06-03T01:58:01.970Z,38.43
2018-06-03T02:00:31.579Z,30.70
2018-06-03T02:03:01.689Z,34.63
2018-06-03T02:05:30.210Z,36.90
2018-06-03T02:08:01.959Z,32.83
2018-06-03T02:10:31.573Z,36.50
2018-06-03T02:13:02.128Z,32.00
2018-06-03T02:15:30.973Z,38.23
2018-06-03T02:18:02.458Z,34.27
2018-06-03T02:20:31.776Z,36.07
2018-06-03T02:23:01.917Z,31.77
2018-06-03T02:25:32.294Z,29.37
2018-06-03T02:28:00.697Z,30.47
2018-06-03T02:30:29.142Z,30.93
2018-06-03T02:32:57.555Z,28.70
2018-06-03T02:35:30.573Z,36.13
2018-06-03T02:37:59.036Z,32.20
2018-06-03T02:40:31.567Z,28.77
2018-06-03T02:43:03.217Z,33.60
2018-06-03T02:45:32.547Z,32.83
2018-06-03T02:48:00.988Z,30.93
2018-06-03T02:50:31.154Z,35.17
2018-06-03T02:52:59.560Z,30.63
2018-06-03T02:55:31.190Z,32.53
2018-06-03T02:58:01.228Z,29.23
2018-06-03T03:00:29.637Z,33.93
2018-06-03T03:02:58.046Z,34.27
2018-06-03T03:05:26.485Z,31.40
2018-06-03T03:07:54.911Z,29.40
2018-06-03T03:10:23.323Z,29.57
2018-06-03T03:12:51.820Z,29.03
2018-06-03T03:15:20.270Z,31.67
2018-06-03T03:17:48.712Z,28.97
2018-06-03T03:20:18.424Z,30.10
2018-06-03T03:22:50.476Z,32.33
2018-06-03T03:25:18.869Z,29.17
2018-06-03T03:27:49.292Z,26.70
2018-06-03T03:30:18.656Z,30.10
2018-06-03T03:32:49.124Z,26.97
2018-06-03T03:35:18.825Z,31.07
2018-06-03T03:37:48.721Z,29.53
2018-06-03T03:40:18.538Z,30.00
2018-06-03T03:43:00.449Z,27.50
2018-06-03T03:45:32.910Z,30.87
2018-06-03T03:48:01.341Z,30.77
2018-06-03T03:50:31.879Z,31.63
2018-06-03T03:53:01.738Z,25.50
2018-06-03T03:55:49.193Z,30.33
2018-06-03T03:58:27.918Z,26.83
2018-06-03T04:01:01.806Z,29.73
2018-06-03T04:03:32.180Z,25.80
2018-06-03T04:06:03.673Z,30.00
2018-06-03T04:08:32.122Z,27.20
2018-06-03T04:11:00.575Z,27.20
2018-06-03T04:13:28.982Z,28.73
2018-06-03T04:15:57.332Z,27.80
2018-06-03T04:18:25.687Z,29.23
2018-06-03T04:20:54.077Z,32.13
2018-06-03T04:23:22.521Z,32.10
2018-06-03T04:25:50.963Z,29.20
2018-06-03T04:28:19.382Z,31.60
2018-06-03T04:30:49.070Z,28.63
2018-06-03T04:33:18.889Z,28.67
2018-06-03T04:35:48.786Z,31.07
2018-06-03T04:38:30.577Z,30.63
2018-06-03T04:40:59.018Z,26.93
2018-06-03T04:43:27.457Z,31.67
2018-06-03T04:45:55.905Z,28.03
2018-06-03T04:48:24.317Z,27.50
2018-06-03T04:50:52.733Z,26.50
2018-06-03T04:53:21.341Z,31.57
2018-06-03T04:55:49.440Z,28.33
2018-06-03T04:58:17.902Z,29.47
2018-06-03T05:00:46.292Z,33.00
2018-06-03T05:03:15.251Z,26.53
2018-06-03T05:05:56.070Z,31.07
2018-06-03T05:08:28.787Z,29.00
2018-06-03T05:11:01.600Z,27.60
2018-06-03T05:13:29.997Z,25.27
2018-06-03T05:15:58.513Z,25.57
2018-06-03T05:18:27.747Z,25.53
2018-06-03T05:21:02.021Z,26.40
2018-06-03T05:23:30.493Z,29.17
2018-06-03T05:26:17.045Z,28.33
2018-06-03T05:28:59.767Z,21.83
2018-06-03T05:31:28.173Z,23.97
2018-06-03T05:33:58.918Z,26.27
2018-06-03T05:36:27.349Z,24.90
2018-06-03T05:39:02.590Z,22.70
2018-06-03T05:41:31.012Z,21.53
2018-06-03T05:43:59.440Z,26.20
2018-06-03T05:46:27.829Z,24.40
2018-06-03T05:48:56.165Z,29.90
2018-06-03T05:51:24.668Z,22.37
2018-06-03T05:53:53.054Z,25.23
2018-06-03T05:56:21.589Z,23.63
2018-06-03T05:58:50.026Z,23.83
2018-06-03T06:01:18.473Z,24.37
2018-06-03T06:04:04.961Z,25.03
2018-06-03T06:06:33.360Z,24.77
2018-06-03T06:09:02.718Z,27.67
2018-06-03T06:11:31.167Z,22.63
2018-06-03T06:14:02.972Z,25.60
2018-06-03T06:16:32.576Z,22.07
2018-06-03T06:19:04.608Z,21.13
2018-06-03T06:21:33.174Z,20.10
2018-06-03T06:24:01.822Z,22.17
2018-06-03T06:26:32.799Z,25.47
2018-06-03T06:29:01.235Z,22.13
2018-06-03T06:31:32.152Z,24.33
2018-06-03T06:34:00.717Z,23.53
2018-06-03T06:36:32.725Z,25.67
2018-06-03T06:39:01.147Z,21.00
2018-06-03T06:41:31.429Z,26.20
2018-06-03T06:44:01.061Z,23.97
2018-06-03T06:46:30.877Z,20.90
2018-06-03T06:49:02.503Z,18.50
2018-06-03T06:51:47.170Z,23.20
2018-06-03T06:54:16.993Z,22.40
2018-06-03T06:56:45.789Z,20.13
2018-06-03T06:59:14.479Z,21.57
2018-06-03T07:01:44.911Z,24.70
2018-06-03T07:04:13.642Z,24.90
2018-06-03T07:06:43.991Z,26.00
2018-06-03T07:09:14.065Z,22.23
2018-06-03T07:11:43.687Z,24.17
2018-06-03T07:14:16.298Z,27.60
2018-06-03T07:16:44.800Z,29.47
2018-06-03T07:19:14.124Z,22.13
2018-06-03T07:21:42.886Z,29.20
2018-06-03T07:24:13.464Z,22.90
2018-06-03T07:26:45.366Z,32.07
2018-06-03T07:29:13.817Z,28.20
2018-06-03T07:31:43.809Z,29.40
2018-06-03T07:34:14.929Z,31.13
2018-06-03T07:36:46.223Z,25.40
2018-06-03T07:39:15.456Z,29.00
2018-06-03T07:41:44.105Z,35.37
2018-06-03T07:44:14.496Z,28.57
2018-06-03T07:46:43.734Z,32.20
2018-06-03T07:49:12.373Z,31.20
2018-06-03T07:51:41.017Z,21.43
2018-06-03T07:54:10.860Z,27.80
2018-06-03T07:56:45.419Z,26.53
2018-06-03T07:59:15.387Z,33.83
2018-06-03T08:01:44.307Z,29.77
2018-06-03T08:04:16.198Z,29.50
2018-06-03T08:06:45.009Z,30.63
2018-06-03T08:09:14.021Z,26.80
2018-06-03T08:11:48.902Z,25.97
2018-06-03T08:14:17.546Z,25.17
2018-06-03T08:16:47.718Z,27.07
2018-06-03T08:19:16.393Z,30.77
2018-06-03T08:21:44.957Z,28.10
2018-06-03T08:24:15.450Z,22.47
2018-06-03T08:26:45.510Z,28.57
2018-06-03T08:29:14.089Z,29.23
2018-06-03T08:31:42.871Z,25.57
2018-06-03T08:34:11.382Z,27.23
2018-06-03T08:36:40.238Z,26.87
2018-06-03T08:39:08.811Z,26.30
2018-06-03T08:41:37.262Z,26.17
2018-06-03T08:44:05.882Z,21.23
2018-06-03T08:46:34.535Z,27.93
2018-06-03T08:49:03.220Z,25.03
2018-06-03T08:51:38.676Z,30.77
2018-06-03T08:54:14.287Z,29.30
2018-06-03T08:56:45.561Z,27.47
2018-06-03T08:59:13.971Z,29.67
2018-06-03T09:01:42.922Z,23.07
2018-06-03T09:04:11.634Z,25.07
2018-06-03T09:06:41.254Z,33.20
2018-06-03T09:09:10.658Z,28.53
2018-06-03T09:11:39.837Z,25.70
2018-06-03T09:14:09.165Z,30.00
2018-06-03T09:16:37.208Z,29.90
2018-06-03T09:19:06.560Z,34.27
2018-06-03T09:21:36.099Z,32.20
2018-06-03T09:24:04.539Z,34.90
2018-06-03T09:26:37.046Z,31.50
2018-06-03T09:29:05.528Z,32.33
2018-06-03T09:31:38.651Z,29.80
2018-06-03T09:34:11.965Z,33.77
2018-06-03T09:36:41.134Z,28.97
2018-06-03T09:39:09.737Z,27.00
2018-06-03T09:41:38.351Z,30.63
2018-06-03T09:44:07.879Z,29.10
2018-06-03T09:46:36.300Z,29.27
2018-06-03T09:49:04.799Z,33.00
2018-06-03T09:51:33.477Z,29.93
2018-06-03T09:54:02.459Z,26.53
2018-06-03T09:56:31.609Z,22.10
2018-06-03T09:59:07.701Z,21.97
2018-06-03T10:01:36.105Z,23.33
2018-06-03T10:04:20.753Z,25.27
2018-06-03T10:07:03.883Z,24.20
2018-06-03T10:09:35.538Z,28.13
2018-06-03T10:12:09.899Z,25.17
2018-06-03T10:14:38.499Z,25.20
2018-06-03T10:17:06.912Z,24.27
2018-06-03T10:19:45.039Z,22.67
2018-06-03T10:22:13.454Z,24.93
2018-06-03T10:24:41.997Z,24.77
2018-06-03T10:27:10.636Z,21.83
2018-06-03T10:29:39.045Z,24.10
2018-06-03T10:32:07.617Z,22.07
2018-06-03T10:34:40.253Z,24.03
2018-06-03T10:37:08.751Z,19.53
2018-06-03T10:39:37.248Z,18.27
2018-06-03T10:42:06.040Z,24.37
2018-06-03T10:44:34.557Z,21.87
2018-06-03T10:47:03.008Z,25.83
2018-06-03T10:49:31.865Z,21.17
2018-06-03T10:52:06.422Z,25.40
2018-06-03T10:54:36.029Z,22.07
2018-06-03T10:57:05.686Z,22.13
2018-06-03T10:59:35.361Z,21.70
2018-06-03T11:02:06.676Z,26.43
2018-06-03T11:04:47.024Z,21.50
2018-06-03T11:07:20.064Z,17.07
2018-06-03T11:09:48.756Z,22.20
2018-06-03T11:12:25.726Z,19.63
2018-06-03T11:15:10.586Z,21.27
2018-06-03T11:17:47.962Z,22.80
2018-06-03T11:26:22.681Z,18.03
2018-06-03T11:29:10.487Z,23.50
2018-06-03T11:31:46.084Z,13.67
2018-06-03T11:34:14.828Z,18.40
2018-06-03T11:36:44.673Z,18.07
2018-06-03T11:39:13.519Z,17.87
2018-06-03T11:41:42.124Z,19.80
2018-06-03T11:44:14.446Z,18.53
2018-06-03T11:46:43.069Z,13.50
2018-06-03T11:49:12.601Z,16.20
2018-06-03T11:51:41.228Z,16.13
2018-06-03T11:54:10.437Z,10.83
2018-06-03T11:57:03.498Z,18.73
2018-06-03T11:59:44.779Z,14.60
2018-06-03T12:02:14.960Z,17.53
2018-06-03T12:04:43.697Z,16.47
2018-06-03T12:07:12.421Z,13.37
2018-06-03T12:09:41.055Z,17.90
2018-06-03T12:12:10.067Z,19.63
2018-06-03T12:14:38.936Z,13.63
2018-06-03T12:17:07.645Z,14.90
2018-06-03T12:19:38.633Z,15.10
2018-06-03T12:22:07.532Z,14.60
2018-06-03T12:24:36.360Z,13.87
2018-06-03T12:27:13.675Z,12.63
2018-06-03T12:29:43.042Z,12.60
2018-06-03T12:32:14.855Z,14.03
2018-06-03T12:34:46.094Z,17.23
2018-06-03T12:37:14.961Z,19.10
2018-06-03T12:39:43.754Z,16.23
2018-06-03T12:42:12.448Z,16.13
2018-06-03T12:44:42.220Z,19.97
2018-06-03T12:47:11.716Z,13.47
2018-06-03T12:49:42.355Z,16.53
2018-06-03T12:52:10.987Z,12.40
2018-06-03T12:54:42.197Z,13.07
2018-06-03T12:57:10.600Z,15.10
2018-06-03T12:59:39.457Z,15.67
2018-06-03T13:02:10.850Z,11.33
2018-06-03T13:04:44.119Z,12.80
2018-06-03T13:07:12.694Z,13.03
2018-06-03T13:09:41.198Z,15.97
2018-06-03T13:12:10.036Z,16.07
2018-06-03T13:14:38.655Z,15.83
2018-06-03T13:17:07.579Z,15.57
2018-06-03T13:19:36.342Z,12.87
2018-06-03T13:22:05.230Z,14.03
2018-06-03T13:24:33.852Z,16.00
2018-06-03T13:27:03.065Z,13.10
2018-06-03T13:29:31.943Z,12.53
2018-06-03T13:32:03.082Z,12.77
2018-06-03T13:34:31.895Z,13.23
2018-06-03T13:37:00.525Z,14.03
2018-06-03T13:39:30.140Z,13.87
2018-06-03T13:41:58.655Z,19.97
2018-06-03T13:44:27.569Z,20.00
2018-06-03T13:46:57.242Z,17.10
2018-06-03T13:49:25.733Z,16.77
2018-06-03T13:51:55.384Z,15.70
2018-06-03T13:54:23.929Z,12.20
2018-06-03T13:56:52.554Z,14.47
2018-06-03T13:59:21.149Z,14.63
2018-06-03T14:01:49.849Z,12.73
2018-06-03T14:04:18.296Z,14.70
2018-06-03T14:06:46.769Z,17.67
2018-06-03T14:09:15.848Z,13.37
2018-06-03T14:11:44.802Z,16.27
2018-06-03T14:14:13.304Z,13.10
2018-06-03T14:16:41.852Z,13.27
2018-06-03T14:19:10.312Z,12.97
2018-06-03T14:21:38.808Z,12.43
2018-06-03T14:24:07.306Z,12.97
2018-06-03T14:26:36.364Z,9.13
2018-06-03T14:29:04.897Z,10.27
2018-06-03T14:31:33.420Z,9.73
2018-06-03T14:34:01.885Z,11.13
2018-06-03T14:36:30.465Z,12.77
2018-06-03T14:38:59.037Z,13.10
2018-06-03T14:41:28.494Z,10.43
2018-06-03T14:43:56.969Z,9.53
2018-06-03T14:46:25.438Z,9.13
2018-06-03T14:48:56.859Z,9.77
2018-06-03T14:51:25.479Z,7.90
2018-06-03T14:53:53.966Z,9.53
2018-06-03T14:56:22.609Z,7.30
2018-06-03T14:58:51.141Z,8.73
2018-06-03T15:01:19.679Z,7.80
2018-06-03T15:03:48.174Z,9.80
2018-06-03T15:06:16.640Z,9.73
2018-06-03T15:08:46.222Z,5.63
2018-06-03T15:11:14.698Z,7.53
2018-06-03T15:13:42.892Z,8.80
2018-06-03T15:16:11.394Z,7.70
2018-06-03T15:18:39.972Z,8.97
2018-06-03T15:21:08.583Z,12.00
2018-06-03T15:23:37.092Z,9.70
2018-06-03T15:26:05.585Z,12.17
2018-06-03T15:28:34.273Z,11.20
2018-06-03T15:31:03.060Z,10.97
2018-06-03T15:33:31.612Z,9.97
2018-06-03T15:36:00.538Z,8.03
2018-06-03T15:38:29.481Z,11.73
2018-06-03T15:40:58.413Z,10.43
2018-06-03T15:43:26.917Z,8.83
2018-06-03T15:45:57.965Z,9.47
2018-06-03T15:48:26.678Z,5.47
2018-06-03T15:50:57.156Z,9.13
2018-06-03T15:53:25.697Z,8.33
2018-06-03T15:55:56.528Z,7.43
2018-06-03T15:58:25.134Z,6.70
2018-06-03T16:00:56.602Z,7.00
2018-06-03T16:03:27.992Z,7.37
2018-06-03T16:05:58.405Z,7.67
2018-06-03T16:08:27.131Z,8.53
2018-06-03T16:10:59.359Z,7.07
2018-06-03T16:13:27.860Z,6.43
2018-06-03T16:15:58.133Z,10.27
2018-06-03T16:18:26.879Z,6.57
2018-06-03T16:20:58.381Z,6.80
2018-06-03T16:23:30.329Z,7.17
2018-06-03T16:26:01.101Z,8.87
2018-06-03T16:28:29.825Z,5.57
2018-06-03T16:30:58.409Z,8.03
2018-06-03T16:33:29.488Z,10.07
2018-06-03T16:35:59.486Z,10.70
2018-06-03T16:38:35.949Z,5.97
2018-06-03T16:41:04.605Z,8.47
2018-06-03T16:43:33.201Z,6.97
2018-06-03T16:46:01.624Z,8.10
2018-06-03T16:48:30.131Z,9.73
2018-06-03T16:50:58.706Z,7.03
2018-06-03T16:53:27.526Z,6.80
2018-06-03T16:55:56.088Z,7.47
2018-06-03T16:58:25.079Z,5.70
2018-06-03T17:00:53.683Z,4.97
2018-06-03T17:03:22.261Z,7.20
2018-06-03T17:05:50.934Z,6.63
2018-06-03T17:08:19.557Z,8.07
2018-06-03T17:10:48.047Z,8.17
2018-06-03T17:13:16.780Z,5.10
2018-06-03T17:15:46.113Z,5.43
2018-06-03T17:18:16.064Z,8.35
2018-06-03T17:20:44.773Z,17.00
2018-06-03T17:23:24.714Z,12.13
2018-06-03T17:25:53.497Z,9.13
2018-06-03T17:28:23.291Z,7.13
2018-06-03T17:30:52.988Z,5.47
2018-06-03T17:33:32.257Z,10.10
2018-06-03T17:36:00.802Z,10.17
2018-06-03T17:38:32.636Z,15.03
2018-06-03T17:41:02.030Z,11.97
2018-06-03T17:43:31.885Z,10.83
2018-06-03T17:46:01.180Z,10.90
2018-06-03T17:48:30.067Z,12.10
2018-06-03T17:50:59.913Z,10.37
2018-06-03T17:53:29.590Z,6.10
2018-06-03T17:55:58.040Z,7.50
2018-06-03T17:58:36.927Z,5.17
2018-06-03T18:01:08.801Z,6.17
2018-06-03T18:03:38.021Z,8.63
2018-06-03T18:06:06.928Z,6.43
2018-06-03T18:08:36.854Z,5.77
2018-06-03T18:11:05.467Z,5.93
2018-06-03T18:13:33.708Z,8.47
2018-06-03T18:16:02.343Z,11.73
2018-06-03T18:18:31.763Z,12.10
2018-06-03T18:21:00.201Z,32.90
2018-06-03T18:23:28.823Z,134.33
2018-06-03T18:25:57.711Z,29.77
2018-06-03T18:28:29.675Z,19.13
2018-06-03T18:30:59.939Z,16.93
2018-06-03T18:33:30.705Z,238.73
2018-06-03T18:35:59.550Z,208.20
2018-06-03T18:38:28.421Z,157.03
2018-06-03T18:40:57.243Z,84.07
2018-06-03T18:43:28.428Z,34.47
2018-06-03T18:46:00.745Z,21.80
2018-06-03T18:48:29.349Z,16.60
2018-06-03T18:50:58.117Z,19.67
2018-06-03T18:53:27.768Z,17.67
2018-06-03T18:55:56.363Z,13.43
2018-06-03T18:58:25.049Z,17.07
2018-06-03T19:00:53.573Z,17.37
2018-06-03T19:03:22.324Z,12.30
2018-06-03T19:05:58.935Z,13.50
2018-06-03T19:08:27.473Z,15.37
2018-06-03T19:10:57.415Z,13.80
2018-06-03T19:13:35.526Z,37.73
2018-06-03T19:16:09.472Z,49.93
2018-06-03T19:18:43.975Z,13.10
2018-06-03T19:21:14.784Z,8.50
2018-06-03T19:23:43.835Z,12.43
2018-06-03T19:26:12.586Z,10.87
2018-06-03T19:28:41.341Z,11.40
2018-06-03T19:31:12.290Z,12.07
2018-06-03T19:33:44.305Z,11.80
2018-06-03T19:36:12.731Z,11.90
2018-06-03T19:38:41.295Z,12.97
2018-06-03T19:41:10.003Z,12.60
2018-06-03T19:43:38.689Z,10.23
2018-06-03T19:46:07.126Z,11.70
2018-06-03T19:48:35.685Z,12.33
2018-06-03T19:51:13.842Z,11.47
2018-06-03T19:53:42.542Z,8.47
2018-06-03T19:56:11.072Z,9.87
2018-06-03T19:58:39.586Z,12.47
2018-06-03T20:01:07.985Z,11.83
2018-06-03T20:03:36.594Z,14.27
2018-06-03T20:06:05.143Z,10.47
2018-06-03T20:08:33.758Z,10.23
2018-06-03T20:11:07.985Z,11.10
2018-06-03T20:13:36.640Z,9.83
2018-06-03T20:16:05.065Z,9.33
2018-06-03T20:18:33.468Z,9.80
2018-06-03T20:21:02.957Z,9.10
2018-06-03T20:23:32.301Z,11.83
2018-06-03T20:26:01.100Z,11.27
2018-06-03T20:28:29.611Z,11.63
2018-06-03T20:30:58.037Z,11.37
2018-06-03T20:33:37.099Z,8.93
2018-06-03T20:36:06.750Z,8.73
2018-06-03T20:38:35.346Z,8.90
2018-06-03T20:41:04.008Z,9.13
2018-06-03T20:43:32.649Z,10.83
2018-06-03T20:46:01.155Z,7.50
2018-06-03T20:48:29.932Z,9.57
2018-06-03T20:50:58.483Z,8.03
2018-06-03T20:53:27.016Z,7.70
2018-06-03T20:55:55.754Z,9.27
2018-06-03T20:58:26.104Z,8.73
2018-06-03T21:00:55.626Z,9.43
2018-06-03T21:03:24.244Z,9.00
2018-06-03T21:05:52.761Z,9.30
2018-06-03T21:08:21.182Z,8.30
2018-06-03T21:10:50.197Z,7.73
2018-06-03T21:13:18.895Z,8.50
2018-06-03T21:15:47.510Z,9.13
2018-06-03T21:18:16.004Z,7.63
2018-06-03T21:20:44.501Z,7.50
2018-06-03T21:23:12.954Z,7.40
2018-06-03T21:25:41.558Z,8.07
2018-06-03T21:28:10.271Z,8.07
2018-06-03T21:30:51.239Z,8.77
2018-06-03T21:33:20.447Z,10.47
2018-06-03T21:35:49.432Z,9.37
2018-06-03T21:38:18.027Z,9.90
2018-06-03T21:40:46.570Z,7.43
2018-06-03T21:43:14.994Z,10.13
2018-06-03T21:45:43.466Z,10.50
2018-06-03T21:48:11.874Z,9.27
2018-06-03T21:50:40.278Z,9.23
2018-06-03T21:53:08.831Z,9.87
2018-06-03T21:55:37.263Z,9.73
2018-06-03T21:58:05.775Z,10.40
2018-06-03T22:00:34.346Z,10.13
2018-06-03T22:03:03.496Z,9.47
2018-06-03T22:05:31.925Z,7.90
2018-06-03T22:08:00.570Z,9.40
2018-06-03T22:10:29.005Z,8.27
2018-06-03T22:12:57.546Z,8.60
2018-06-03T22:15:25.918Z,8.97
2018-06-03T22:17:54.379Z,8.60
2018-06-03T22:20:22.814Z,8.83
2018-06-03T22:22:51.233Z,7.83
2018-06-03T22:25:19.657Z,8.77
2018-06-03T22:27:48.072Z,8.20
2018-06-03T22:30:16.523Z,8.00
2018-06-03T22:32:45.031Z,8.37
2018-06-03T22:35:13.490Z,7.70
2018-06-03T22:37:41.902Z,8.37
2018-06-03T22:40:10.387Z,7.73
2018-06-03T22:42:38.986Z,7.43
2018-06-03T22:45:07.375Z,8.50
2018-06-03T22:47:35.887Z,8.17
2018-06-03T22:50:04.390Z,9.23
2018-06-03T22:52:32.707Z,8.70
2018-06-03T22:55:01.135Z,8.47
2018-06-03T22:57:42.066Z,11.20
2018-06-03T23:00:11.024Z,9.50
2018-06-03T23:02:39.469Z,9.83
2018-06-03T23:05:07.841Z,7.57
2018-06-03T23:07:36.189Z,8.83
2018-06-03T23:10:04.674Z,10.13
2018-06-03T23:12:33.321Z,11.03
2018-06-03T23:15:01.777Z,10.13
2018-06-03T23:17:30.699Z,10.97
2018-06-03T23:19:59.090Z,12.40
2018-06-03T23:22:27.504Z,10.67
2018-06-03T23:24:57.411Z,14.23
2018-06-03T23:27:25.990Z,14.17
2018-06-03T23:29:54.314Z,16.00
2018-06-03T23:32:23.141Z,13.63
2018-06-03T23:34:51.781Z,13.93
2018-06-03T23:37:20.249Z,16.77
2018-06-03T23:39:48.740Z,17.13
2018-06-03T23:42:17.117Z,17.27
2018-06-03T23:44:45.544Z,17.77
2018-06-03T23:47:13.950Z,18.00
2018-06-03T23:49:42.345Z,18.90
2018-06-03T23:52:10.968Z,20.27
2018-06-03T23:54:39.414Z,19.53
2018-06-03T23:57:07.868Z,21.33
2018-06-03T23:59:36.285Z,19.43
